createdAt,value
2017-07-05T00:00:54.132Z,75.70
2017-07-05T00:03:22.047Z,75.70
2017-07-05T00:05:50.493Z,75.70
2017-07-05T00:08:18.450Z,75.20
2017-07-05T00:10:46.314Z,75.10
2017-07-05T00:13:14.199Z,75.00
2017-07-05T00:15:41.742Z,75.00
2017-07-05T00:18:09.630Z,75.10
2017-07-05T00:20:37.094Z,75.10
2017-07-05T00:23:04.617Z,75.10
2017-07-05T00:25:32.590Z,75.00
2017-07-05T00:28:00.477Z,75.20
2017-07-05T00:30:28.010Z,75.20
2017-07-05T00:32:55.990Z,75.00
2017-07-05T00:35:23.542Z,75.00
2017-07-05T00:37:53.358Z,74.90
2017-07-05T00:40:21.321Z,74.90
2017-07-05T00:42:49.291Z,74.80
2017-07-05T00:45:17.158Z,74.90
2017-07-05T00:47:44.714Z,74.90
2017-07-05T00:50:12.682Z,74.80
2017-07-05T00:52:40.651Z,74.90
2017-07-05T00:55:08.521Z,74.90
2017-07-05T00:57:36.410Z,75.00
2017-07-05T01:00:03.903Z,75.00
2017-07-05T01:02:31.402Z,75.00
2017-07-05T01:04:59.364Z,75.00
2017-07-05T01:07:27.229Z,75.10
2017-07-05T01:09:55.194Z,75.20
2017-07-05T01:12:23.069Z,75.40
2017-07-05T01:14:50.950Z,75.40
2017-07-05T01:17:18.486Z,75.40
2017-07-05T01:19:46.469Z,75.70
2017-07-05T01:22:14.426Z,75.50
2017-07-05T01:24:42.390Z,75.50
2017-07-05T01:27:10.266Z,75.70
2017-07-05T01:29:39.050Z,75.70
2017-07-05T01:32:07.851Z,75.50
2017-07-05T01:34:35.343Z,75.50
2017-07-05T01:37:02.826Z,75.50
2017-07-05T01:39:30.410Z,75.40
2017-07-05T01:41:58.270Z,75.40
2017-07-05T01:44:26.241Z,75.50
2017-07-05T01:46:54.110Z,75.70
2017-07-05T01:49:22.079Z,75.70
2017-07-05T01:51:50.041Z,75.40
2017-07-05T01:54:19.865Z,75.40
2017-07-05T01:56:47.739Z,75.40
2017-07-05T01:59:16.202Z,75.40
2017-07-05T02:01:44.070Z,75.50
2017-07-05T02:04:12.038Z,75.70
2017-07-05T02:06:39.907Z,75.80
2017-07-05T02:09:07.774Z,76.10
2017-07-05T02:11:35.666Z,76.00
2017-07-05T02:14:03.137Z,76.00
2017-07-05T02:16:30.630Z,76.20
2017-07-05T02:18:58.214Z,76.10
2017-07-05T02:21:28.062Z,76.10
2017-07-05T02:23:55.573Z,76.10
2017-07-05T02:26:23.445Z,76.30
2017-07-05T02:28:51.352Z,76.30
2017-07-05T02:31:18.866Z,76.30
2017-07-05T02:33:46.837Z,76.40
2017-07-05T02:36:14.801Z,76.40
2017-07-05T02:38:42.770Z,76.70
2017-07-05T02:41:11.577Z,76.60
2017-07-05T02:43:39.163Z,76.60
2017-07-05T02:46:06.654Z,76.70
2017-07-05T02:48:34.147Z,76.70
2017-07-05T02:51:02.028Z,76.60
2017-07-05T02:53:29.562Z,76.60
2017-07-05T02:55:57.442Z,76.80
2017-07-05T02:58:24.978Z,76.80
2017-07-05T03:00:52.545Z,76.80
2017-07-05T03:03:20.427Z,77.10
2017-07-05T03:05:47.982Z,77.10
2017-07-05T03:08:15.531Z,77.20
2017-07-05T03:10:43.399Z,77.00
2017-07-05T03:13:12.278Z,77.00
2017-07-05T03:15:40.146Z,77.20
2017-07-05T03:18:09.953Z,77.30
2017-07-05T03:20:37.851Z,77.40
2017-07-05T03:23:05.378Z,77.40
2017-07-05T03:25:33.350Z,77.70
2017-07-05T03:28:01.213Z,77.80
2017-07-05T03:30:29.098Z,77.70
2017-07-05T03:32:56.566Z,77.80
2017-07-05T03:35:24.093Z,77.60
2017-07-05T03:37:52.062Z,77.70
2017-07-05T03:40:19.930Z,77.90
2017-07-05T03:42:47.903Z,77.90
2017-07-05T03:45:16.706Z,77.90
2017-07-05T03:47:44.252Z,77.90
2017-07-05T03:50:12.118Z,78.00
2017-07-05T03:52:40.005Z,77.80
2017-07-05T03:55:07.630Z,77.80
2017-07-05T03:57:35.194Z,77.70
2017-07-05T04:00:03.077Z,77.80
2017-07-05T04:02:30.625Z,77.80
2017-07-05T04:04:58.614Z,77.60
2017-07-05T04:07:26.079Z,77.60
2017-07-05T04:09:53.606Z,77.60
2017-07-05T04:12:21.469Z,78.00
2017-07-05T04:14:49.378Z,78.00
2017-07-05T04:17:16.894Z,78.00
2017-07-05T04:19:44.762Z,77.60
2017-07-05T04:22:12.725Z,77.60
2017-07-05T04:24:40.699Z,77.50
2017-07-05T04:27:08.667Z,77.50
2017-07-05T04:29:36.633Z,77.70
2017-07-05T04:32:04.545Z,77.80
2017-07-05T04:34:32.062Z,77.80
2017-07-05T04:37:00.879Z,77.20
2017-07-05T04:39:30.375Z,77.30
2017-07-05T04:41:58.220Z,77.40
2017-07-05T04:44:26.110Z,77.30
2017-07-05T04:46:53.642Z,77.30
2017-07-05T04:49:21.515Z,77.40
2017-07-05T04:51:49.405Z,77.50
2017-07-05T04:54:16.877Z,77.50
2017-07-05T04:56:44.387Z,77.50
2017-07-05T04:59:12.353Z,77.50
2017-07-05T05:01:40.243Z,77.50
2017-07-05T05:04:07.779Z,77.50
2017-07-05T05:06:35.689Z,77.50
2017-07-05T05:09:03.177Z,77.50
2017-07-05T05:11:30.660Z,77.50
2017-07-05T05:13:58.550Z,77.20
2017-07-05T05:16:26.085Z,77.30
2017-07-05T05:18:54.054Z,77.30
2017-07-05T05:21:22.026Z,77.30
2017-07-05T05:23:49.902Z,77.30
2017-07-05T05:26:18.386Z,77.30
2017-07-05T05:28:45.926Z,77.40
2017-07-05T05:31:13.894Z,77.30
2017-07-05T05:33:41.794Z,77.30
2017-07-05T05:36:09.321Z,77.30
2017-07-05T05:38:37.210Z,77.10
2017-07-05T05:41:05.637Z,77.10
2017-07-05T05:43:33.226Z,77.00
2017-07-05T05:46:02.034Z,77.30
2017-07-05T05:48:29.579Z,77.30
2017-07-05T05:50:57.538Z,76.90
2017-07-05T05:53:25.506Z,77.10
2017-07-05T05:55:53.402Z,77.10
2017-07-05T05:58:20.938Z,77.10
2017-07-05T06:00:48.834Z,77.00
2017-07-05T06:03:16.322Z,77.00
2017-07-05T06:05:43.914Z,77.20
2017-07-05T06:08:11.883Z,76.80
2017-07-05T06:10:39.860Z,76.80
2017-07-05T06:13:07.760Z,76.80
2017-07-05T06:15:35.278Z,76.70
2017-07-05T06:18:04.161Z,76.70
2017-07-05T06:20:32.134Z,76.30
2017-07-05T06:23:00.100Z,76.20
2017-07-05T06:25:27.997Z,76.20
2017-07-05T06:27:55.490Z,76.20
2017-07-05T06:30:22.974Z,76.00
2017-07-05T06:32:50.589Z,75.80
2017-07-05T06:35:18.097Z,75.90
2017-07-05T06:37:45.990Z,75.80
2017-07-05T06:40:13.470Z,75.80
2017-07-05T06:42:40.966Z,75.80
2017-07-05T06:45:08.445Z,75.70
2017-07-05T06:47:36.334Z,75.40
2017-07-05T06:50:03.818Z,75.40
2017-07-05T06:52:31.313Z,75.30
2017-07-05T06:54:59.286Z,75.20
2017-07-05T06:57:27.175Z,75.00
2017-07-05T06:59:54.714Z,75.00
2017-07-05T07:02:22.679Z,75.00
2017-07-05T07:04:50.558Z,75.00
2017-07-05T07:07:18.102Z,75.00
2017-07-05T07:09:46.070Z,74.90
2017-07-05T07:12:14.040Z,74.80
2017-07-05T07:14:42.806Z,74.80
2017-07-05T07:17:10.385Z,74.80
2017-07-05T07:19:38.258Z,74.70
2017-07-05T07:22:06.276Z,74.70
2017-07-05T07:24:34.698Z,74.70
2017-07-05T07:27:02.670Z,74.60
2017-07-05T07:29:30.545Z,74.50
2017-07-05T07:31:58.544Z,74.60
2017-07-05T07:34:26.022Z,74.50
2017-07-05T07:36:53.517Z,74.50
2017-07-05T07:39:21.390Z,74.50
2017-07-05T07:41:50.274Z,74.40
2017-07-05T07:44:18.180Z,74.40
2017-07-05T07:46:45.698Z,74.40
2017-07-05T07:49:13.605Z,74.40
2017-07-05T07:51:41.121Z,74.40
2017-07-05T07:54:09.089Z,74.30
2017-07-05T07:56:37.058Z,74.30
2017-07-05T07:59:05.879Z,74.30
2017-07-05T08:01:33.427Z,74.30
2017-07-05T08:04:00.908Z,74.30
2017-07-05T08:06:28.394Z,74.30
2017-07-05T08:08:55.905Z,74.20
2017-07-05T08:11:23.438Z,74.20
2017-07-05T08:13:51.327Z,74.20
2017-07-05T08:16:18.812Z,74.20
2017-07-05T08:18:46.311Z,74.10
2017-07-05T08:21:14.282Z,74.10
2017-07-05T08:23:42.249Z,74.10
2017-07-05T08:26:10.158Z,74.10
2017-07-05T08:28:37.683Z,74.10
2017-07-05T08:31:05.669Z,74.10
2017-07-05T08:33:35.117Z,74.10
2017-07-05T08:36:02.595Z,74.10
2017-07-05T08:38:31.106Z,74.00
2017-07-05T08:40:58.646Z,74.00
2017-07-05T08:43:26.539Z,74.00
2017-07-05T08:45:54.067Z,74.00
2017-07-05T08:48:22.040Z,73.90
2017-07-05T08:50:50.003Z,73.80
2017-07-05T08:53:17.972Z,73.80
2017-07-05T08:55:45.942Z,73.80
2017-07-05T08:58:15.774Z,73.80
2017-07-05T09:00:44.234Z,73.80
2017-07-05T09:03:12.131Z,73.70
2017-07-05T09:05:39.606Z,73.80
2017-07-05T09:08:07.116Z,73.70
2017-07-05T09:10:34.998Z,73.60
2017-07-05T09:13:02.579Z,73.60
2017-07-05T09:15:30.113Z,73.60
2017-07-05T09:17:57.614Z,73.60
2017-07-05T09:20:25.089Z,73.50
2017-07-05T09:22:52.589Z,73.50
2017-07-05T09:25:20.127Z,73.40
2017-07-05T09:27:48.013Z,73.20
2017-07-05T09:30:15.550Z,73.20
2017-07-05T09:32:43.518Z,73.10
2017-07-05T09:35:11.529Z,72.90
2017-07-05T09:37:39.031Z,72.90
2017-07-05T09:40:06.514Z,72.90
2017-07-05T09:42:34.469Z,72.90
2017-07-05T09:45:02.436Z,72.80
2017-07-05T09:47:30.413Z,72.80
2017-07-05T09:49:59.198Z,72.70
2017-07-05T09:52:27.166Z,72.60
2017-07-05T09:54:55.129Z,72.70
2017-07-05T09:57:23.098Z,72.60
2017-07-05T09:59:50.973Z,72.60
2017-07-05T10:02:18.854Z,72.60
2017-07-05T10:04:46.401Z,72.60
2017-07-05T10:07:13.879Z,72.50
2017-07-05T10:09:41.406Z,72.50
2017-07-05T10:12:09.374Z,72.40
2017-07-05T10:14:37.342Z,72.30
2017-07-05T10:17:04.897Z,72.30
2017-07-05T10:19:34.733Z,72.30
2017-07-05T10:22:02.209Z,72.30
2017-07-05T10:24:29.701Z,72.20
2017-07-05T10:26:57.191Z,72.20
2017-07-05T10:29:25.074Z,72.10
2017-07-05T10:31:52.610Z,72.10
2017-07-05T10:34:20.508Z,72.10
2017-07-05T10:36:47.977Z,72.10
2017-07-05T10:39:15.480Z,72.00
2017-07-05T10:41:43.046Z,72.00
2017-07-05T10:44:11.018Z,71.90
2017-07-05T10:46:38.977Z,71.70
2017-07-05T10:49:06.874Z,71.60
2017-07-05T10:51:34.354Z,71.60
2017-07-05T10:54:02.791Z,71.60
2017-07-05T10:56:30.755Z,71.50
2017-07-05T10:58:58.722Z,71.50
2017-07-05T11:01:27.050Z,71.50
2017-07-05T11:03:54.554Z,71.40
2017-07-05T11:06:22.521Z,71.40
2017-07-05T11:08:50.414Z,71.30
2017-07-05T11:11:17.891Z,71.30
2017-07-05T11:13:45.412Z,71.30
2017-07-05T11:16:13.373Z,71.20
2017-07-05T11:18:43.218Z,71.10
2017-07-05T11:21:10.742Z,71.10
2017-07-05T11:23:38.629Z,71.10
2017-07-05T11:26:07.075Z,71.10
2017-07-05T11:28:35.570Z,71.00
2017-07-05T11:31:04.382Z,71.00
2017-07-05T11:33:32.843Z,71.00
2017-07-05T11:36:01.650Z,71.00
2017-07-05T11:38:29.182Z,71.00
2017-07-05T11:40:57.069Z,70.90
2017-07-05T11:43:24.609Z,70.90
2017-07-05T11:45:52.578Z,70.70
2017-07-05T11:48:20.486Z,70.70
2017-07-05T11:50:47.998Z,70.80
2017-07-05T11:53:15.967Z,70.70
2017-07-05T11:55:43.934Z,70.70
2017-07-05T11:58:11.910Z,70.60
2017-07-05T12:00:39.875Z,70.60
2017-07-05T12:03:07.846Z,70.50
2017-07-05T12:05:35.809Z,70.40
2017-07-05T12:08:03.790Z,70.40
2017-07-05T12:10:31.746Z,70.40
2017-07-05T12:12:59.638Z,70.40
2017-07-05T12:15:27.175Z,70.40
2017-07-05T12:17:54.684Z,70.50
2017-07-05T12:20:22.398Z,70.50
2017-07-05T12:22:50.285Z,70.40
2017-07-05T12:25:17.762Z,70.40
2017-07-05T12:27:45.313Z,70.50
2017-07-05T12:30:12.815Z,70.70
2017-07-05T12:32:40.294Z,70.70
2017-07-05T12:35:08.257Z,70.80
2017-07-05T12:37:36.225Z,70.60
2017-07-05T12:40:04.190Z,70.60
2017-07-05T12:42:32.100Z,70.70
2017-07-05T12:44:59.614Z,70.70
2017-07-05T12:47:27.485Z,70.80
2017-07-05T12:49:55.041Z,70.80
2017-07-05T12:52:22.909Z,70.70
2017-07-05T12:54:50.873Z,70.80
2017-07-05T12:57:18.842Z,70.70
2017-07-05T12:59:46.737Z,70.60
2017-07-05T13:02:14.270Z,70.60
2017-07-05T13:04:42.180Z,70.50
2017-07-05T13:07:09.653Z,70.50
2017-07-05T13:09:37.259Z,70.40
2017-07-05T13:12:05.218Z,70.40
2017-07-05T13:14:33.185Z,70.50
2017-07-05T13:17:01.158Z,70.50
2017-07-05T13:19:29.126Z,70.60
2017-07-05T13:21:57.094Z,70.80
2017-07-05T13:24:25.060Z,70.60
2017-07-05T13:26:53.967Z,70.50
2017-07-05T13:29:21.922Z,70.30
2017-07-05T13:31:49.791Z,70.20
2017-07-05T13:34:17.682Z,70.40
2017-07-05T13:36:45.210Z,70.40
2017-07-05T13:39:12.770Z,70.80
2017-07-05T13:41:40.734Z,70.10
2017-07-05T13:44:08.645Z,70.20
2017-07-05T13:46:36.159Z,70.20
2017-07-05T13:49:04.946Z,70.40
2017-07-05T13:51:32.857Z,70.50
2017-07-05T13:54:00.359Z,70.50
2017-07-05T13:56:27.826Z,70.40
2017-07-05T13:58:55.314Z,70.30
2017-07-05T14:01:22.790Z,70.40
2017-07-05T14:03:51.189Z,70.40
2017-07-05T14:06:18.889Z,70.40
2017-07-05T14:08:46.789Z,70.30
2017-07-05T14:11:14.315Z,70.30
2017-07-05T14:13:42.318Z,70.30
2017-07-05T14:16:09.806Z,70.30
2017-07-05T14:18:37.306Z,70.40
2017-07-05T14:21:04.858Z,70.30
2017-07-05T14:23:32.753Z,70.40
2017-07-05T14:26:00.246Z,70.40
2017-07-05T14:28:27.806Z,70.30
2017-07-05T14:30:55.264Z,70.30
2017-07-05T14:33:22.768Z,70.40
2017-07-05T14:35:50.251Z,70.30
2017-07-05T14:38:17.763Z,70.40
2017-07-05T14:40:45.651Z,70.40
2017-07-05T14:43:13.151Z,70.40
2017-07-05T14:45:40.638Z,70.40
2017-07-05T14:48:08.216Z,70.40
2017-07-05T14:50:35.704Z,70.40
2017-07-05T14:53:03.227Z,70.40
2017-07-05T14:55:31.145Z,70.40
2017-07-05T14:57:58.687Z,70.40
2017-07-05T15:00:26.173Z,70.50
2017-07-05T15:02:55.630Z,70.40
2017-07-05T15:05:23.122Z,70.40
2017-07-05T15:07:50.642Z,70.40
2017-07-05T15:10:18.163Z,70.40
2017-07-05T15:12:45.672Z,70.40
2017-07-05T15:15:13.257Z,70.60
2017-07-05T15:17:40.771Z,70.50
2017-07-05T15:20:08.284Z,70.40
2017-07-05T15:22:35.773Z,70.40
2017-07-05T15:25:03.287Z,70.50
2017-07-05T15:27:30.791Z,70.50
2017-07-05T15:29:59.277Z,70.50
2017-07-05T15:32:26.931Z,70.40
2017-07-05T15:34:54.463Z,70.50
2017-07-05T15:37:21.951Z,70.50
2017-07-05T15:39:50.527Z,70.50
2017-07-05T15:42:19.335Z,70.40
2017-07-05T15:44:46.913Z,70.40
2017-07-05T15:47:14.401Z,70.40
2017-07-05T15:49:42.325Z,70.60
2017-07-05T15:52:09.991Z,70.60
2017-07-05T15:54:37.510Z,70.50
2017-07-05T15:57:05.470Z,70.60
2017-07-05T15:59:33.437Z,70.60
2017-07-05T16:02:00.998Z,70.60
2017-07-05T16:04:30.834Z,70.10
2017-07-05T16:06:58.298Z,70.10
2017-07-05T16:09:25.786Z,70.10
2017-07-05T16:11:53.253Z,70.60
2017-07-05T16:14:20.837Z,70.30
2017-07-05T16:16:48.814Z,70.40
2017-07-05T16:19:16.698Z,70.40
2017-07-05T16:21:44.234Z,70.40
2017-07-05T16:24:12.121Z,70.50
2017-07-05T16:26:39.662Z,70.50
2017-07-05T16:29:07.546Z,70.20
2017-07-05T16:31:35.086Z,70.20
2017-07-05T16:34:03.049Z,70.10
2017-07-05T16:36:31.014Z,70.10
2017-07-05T16:38:58.501Z,70.10
2017-07-05T16:41:25.981Z,70.10
2017-07-05T16:43:53.482Z,70.20
2017-07-05T16:46:20.966Z,70.20
2017-07-05T16:48:48.458Z,70.30
2017-07-05T16:51:15.950Z,70.50
2017-07-05T16:53:43.422Z,70.90
2017-07-05T16:56:11.334Z,70.40
2017-07-05T16:58:38.806Z,70.40
2017-07-05T17:01:07.265Z,70.20
2017-07-05T17:03:34.778Z,70.30
2017-07-05T17:06:02.342Z,70.40
2017-07-05T17:08:30.339Z,70.70
2017-07-05T17:10:57.849Z,70.70
2017-07-05T17:13:25.353Z,70.70
2017-07-05T17:15:52.881Z,70.80
2017-07-05T17:18:21.703Z,70.90
2017-07-05T17:20:49.226Z,70.80
2017-07-05T17:23:17.193Z,70.90
2017-07-05T17:25:45.086Z,70.90
2017-07-05T17:28:12.619Z,70.90
2017-07-05T17:30:40.506Z,71.00
2017-07-05T17:33:07.984Z,71.00
2017-07-05T17:35:35.497Z,71.10
2017-07-05T17:38:03.369Z,71.10
2017-07-05T17:40:31.335Z,71.10
2017-07-05T17:42:59.335Z,71.20
2017-07-05T17:45:26.839Z,71.10
2017-07-05T17:47:54.318Z,71.20
2017-07-05T17:50:22.211Z,71.30
2017-07-05T17:52:50.477Z,71.30
2017-07-05T17:55:18.018Z,71.30
2017-07-05T17:57:46.439Z,71.50
2017-07-05T18:00:14.000Z,71.50
2017-07-05T18:02:41.510Z,71.50
2017-07-05T18:05:09.002Z,71.50
2017-07-05T18:07:36.529Z,71.60
2017-07-05T18:10:04.498Z,71.60
2017-07-05T18:12:32.370Z,71.60
2017-07-05T18:15:00.261Z,71.70
2017-07-05T18:17:29.686Z,71.70
2017-07-05T18:19:57.165Z,71.70
2017-07-05T18:22:24.745Z,71.70
2017-07-05T18:24:52.642Z,71.80
2017-07-05T18:27:20.129Z,71.80
2017-07-05T18:29:47.614Z,71.80
2017-07-05T18:32:15.185Z,71.80
2017-07-05T18:34:43.157Z,71.80
2017-07-05T18:37:11.134Z,71.80
2017-07-05T18:39:39.026Z,71.70
2017-07-05T18:42:06.522Z,71.80
2017-07-05T18:44:34.005Z,71.80
2017-07-05T18:47:01.902Z,71.80
2017-07-05T18:49:29.436Z,71.80
2017-07-05T18:51:57.350Z,71.90
2017-07-05T18:54:24.862Z,71.90
2017-07-05T18:56:52.823Z,71.80
2017-07-05T18:59:22.674Z,71.90
2017-07-05T19:01:51.077Z,71.90
2017-07-05T19:04:18.691Z,71.90
2017-07-05T19:06:46.250Z,71.90
2017-07-05T19:09:16.094Z,71.90
2017-07-05T19:11:43.602Z,71.90
2017-07-05T19:14:11.493Z,72.00
2017-07-05T19:16:38.976Z,72.00
2017-07-05T19:19:08.430Z,72.00
2017-07-05T19:21:36.326Z,72.10
2017-07-05T19:24:03.805Z,72.10
2017-07-05T19:26:32.198Z,72.10
2017-07-05T19:28:59.686Z,72.10
2017-07-05T19:31:27.578Z,72.20
2017-07-05T19:33:55.118Z,72.20
2017-07-05T19:36:23.015Z,72.30
2017-07-05T19:38:50.538Z,72.30
2017-07-05T19:41:18.430Z,72.30
2017-07-05T19:43:45.958Z,72.30
2017-07-05T19:46:13.854Z,72.40
2017-07-05T19:48:41.390Z,72.40
2017-07-05T19:51:09.289Z,72.30
2017-07-05T19:53:36.765Z,72.30
2017-07-05T19:56:06.202Z,72.30
2017-07-05T19:58:33.782Z,72.30
2017-07-05T20:01:01.672Z,72.30
2017-07-05T20:03:29.195Z,72.30
2017-07-05T20:05:58.102Z,72.30
2017-07-05T20:08:25.588Z,72.40
2017-07-05T20:10:53.098Z,72.30
2017-07-05T20:13:21.886Z,72.10
2017-07-05T20:15:51.722Z,72.00
2017-07-05T20:18:21.495Z,72.00
2017-07-05T20:20:49.914Z,72.00
2017-07-05T20:23:17.458Z,71.90
2017-07-05T20:25:45.342Z,71.90
2017-07-05T20:28:12.856Z,71.90
2017-07-05T20:30:42.077Z,71.80
2017-07-05T20:33:09.590Z,71.80
2017-07-05T20:35:38.105Z,71.80
2017-07-05T20:38:06.078Z,71.80
2017-07-05T20:40:34.046Z,71.80
2017-07-05T20:43:02.009Z,71.70
2017-07-05T20:45:30.797Z,71.70
2017-07-05T20:47:58.767Z,71.70
2017-07-05T20:50:26.687Z,71.70
2017-07-05T20:52:54.201Z,71.70
2017-07-05T20:55:22.169Z,71.70
2017-07-05T20:57:50.043Z,71.60
2017-07-05T21:00:17.539Z,71.60
2017-07-05T21:02:45.046Z,71.60
2017-07-05T21:05:13.013Z,71.50
2017-07-05T21:07:41.019Z,71.60
2017-07-05T21:10:08.512Z,71.60
2017-07-05T21:12:36.031Z,71.50
2017-07-05T21:15:03.566Z,71.80
2017-07-05T21:17:31.532Z,71.40
2017-07-05T21:19:59.407Z,71.30
2017-07-05T21:22:26.910Z,71.30
2017-07-05T21:24:54.377Z,71.30
2017-07-05T21:27:21.889Z,71.40
2017-07-05T21:29:49.421Z,71.40
2017-07-05T21:32:17.324Z,71.50
2017-07-05T21:34:44.837Z,71.50
2017-07-05T21:37:12.334Z,71.40
2017-07-05T21:39:40.189Z,71.40
2017-07-05T21:42:07.880Z,71.40
2017-07-05T21:44:35.398Z,71.30
2017-07-05T21:47:02.911Z,71.40
2017-07-05T21:49:33.385Z,71.40
2017-07-05T21:52:01.552Z,71.40
2017-07-05T21:54:30.851Z,71.50
2017-07-05T21:56:58.895Z,71.50
2017-07-05T21:59:27.106Z,71.40
2017-07-05T22:01:56.323Z,71.40
2017-07-05T22:04:24.772Z,71.50
2017-07-05T22:06:53.271Z,71.50
2017-07-05T22:09:21.026Z,71.50
2017-07-05T22:11:50.246Z,71.50
2017-07-05T22:14:19.090Z,71.50
2017-07-05T22:16:48.550Z,71.60
2017-07-05T22:19:16.339Z,71.60
2017-07-05T22:21:46.085Z,71.60
2017-07-05T22:24:14.960Z,71.60
2017-07-05T22:26:44.167Z,71.60
2017-07-05T22:29:12.780Z,71.60
2017-07-05T22:31:42.871Z,71.60
2017-07-05T22:34:11.551Z,71.70
2017-07-05T22:36:40.837Z,71.70
2017-07-05T22:39:09.042Z,71.70
2017-07-05T22:41:38.592Z,71.70
2017-07-05T22:44:06.947Z,71.70
2017-07-05T22:46:34.866Z,71.70
2017-07-05T22:49:02.445Z,71.70
2017-07-05T22:51:31.202Z,71.70
2017-07-05T22:54:00.865Z,71.70
2017-07-05T22:56:32.183Z,71.70
2017-07-05T22:59:00.664Z,71.70
2017-07-05T23:01:29.914Z,71.70
2017-07-05T23:03:57.723Z,71.80
2017-07-05T23:06:25.574Z,71.80
2017-07-05T23:08:54.714Z,71.80
2017-07-05T23:11:25.774Z,71.80
2017-07-05T23:13:55.916Z,71.80
2017-07-05T23:16:26.021Z,71.80
2017-07-05T23:18:55.902Z,71.80
2017-07-05T23:21:25.554Z,71.80
2017-07-05T23:23:54.552Z,71.80
2017-07-05T23:26:24.547Z,71.80
2017-07-05T23:28:52.526Z,71.80
2017-07-05T23:31:23.109Z,71.90
2017-07-05T23:33:52.031Z,71.90
2017-07-05T23:36:21.450Z,72.00
2017-07-05T23:38:50.060Z,72.00
2017-07-05T23:41:18.339Z,72.00
2017-07-05T23:43:46.364Z,71.90
2017-07-05T23:46:17.027Z,72.00
2017-07-05T23:48:45.836Z,72.00
2017-07-05T23:51:14.536Z,72.00
2017-07-05T23:53:42.378Z,72.00
2017-07-05T23:56:11.776Z,72.00
2017-07-05T23:58:39.469Z,72.00
